Time;durP1;ratioP1;P1;durP2;ratioP2;P2;SDS_P1;SDS_P2;PMS_P1;PMS_P2;Temp;Humidity;BMP_temperature;BMP_pressure;BME280_temperature;BME280_humidity;BME280_pressure;Samples;Min_cycle;Max_cycle;Signal;HPM_P1;HPM_P2
2022/01/29 00:00:09;;;;;;;6.20;4.28;;;2.10;99.90;;;;;;5077335;28;20480;-84
2022/01/29 00:02:35;;;;;;;5.40;3.85;;;2.10;99.90;;;;;;5076326;28;20527;-85
2022/01/29 00:05:01;;;;;;;6.80;4.32;;;2.00;99.90;;;;;;5076885;28;20024;-85
2022/01/29 00:07:26;;;;;;;6.13;4.13;;;2.00;99.90;;;;;;5076730;28;20020;-84
2022/01/29 00:10:00;;;;;;;6.15;3.78;;;2.10;99.90;;;;;;5076245;28;20028;-84
2022/01/29 00:12:25;;;;;;;7.85;4.63;;;2.10;99.90;;;;;;5077035;28;20024;-84
2022/01/29 00:14:51;;;;;;;7.20;4.68;;;2.10;99.90;;;;;;5076865;28;20374;-84
2022/01/29 00:17:17;;;;;;;7.65;4.90;;;2.10;99.90;;;;;;5094739;28;20105;-82
2022/01/29 00:19:43;;;;;;;6.85;4.60;;;2.10;99.90;;;;;;5076174;28;20126;-84
2022/01/29 00:22:08;;;;;;;8.82;4.40;;;2.10;99.90;;;;;;5094209;28;20020;-80
2022/01/29 00:24:34;;;;;;;9.05;4.55;;;2.10;99.90;;;;;;5076781;28;20031;-85
2022/01/29 00:27:07;;;;;;;6.55;4.03;;;2.10;99.90;;;;;;5076230;28;20028;-85
2022/01/29 00:29:34;;;;;;;8.15;4.00;;;2.10;99.90;;;;;;5094524;28;20048;-84
2022/01/29 00:32:00;;;;;;;8.48;4.32;;;2.00;99.90;;;;;;5075791;28;20055;-86
2022/01/29 00:34:26;;;;;;;7.32;4.20;;;2.00;99.90;;;;;;5093937;28;20036;-85
2022/01/29 00:36:52;;;;;;;8.20;4.07;;;2.00;99.90;;;;;;5093688;28;20024;-85
2022/01/29 00:39:17;;;;;;;6.63;3.70;;;2.00;99.90;;;;;;5075434;28;20101;-84
2022/01/29 00:41:46;;;;;;;6.50;3.88;;;1.90;99.90;;;;;;5075428;28;20358;-86
2022/01/29 00:44:12;;;;;;;7.57;4.13;;;1.90;99.90;;;;;;5089764;28;20087;-87
2022/01/29 00:46:41;;;;;;;6.30;3.83;;;1.90;99.90;;;;;;5077286;28;20028;-84
2022/01/29 00:49:10;;;;;;;6.18;3.80;;;1.80;99.90;;;;;;5092563;28;20098;-87
2022/01/29 00:51:36;;;;;;;6.35;3.90;;;1.80;99.90;;;;;;5092727;28;20513;-85
2022/01/29 00:54:03;;;;;;;74.07;43.97;;;1.80;99.90;;;;;;5092339;28;20107;-93
2022/01/29 00:56:28;;;;;;;58.92;36.05;;;1.80;99.90;;;;;;5075179;28;20056;-91
2022/01/29 00:58:54;;;;;;;51.13;31.30;;;1.80;99.90;;;;;;5074816;28;20059;-85
2022/01/29 01:01:20;;;;;;;67.97;43.03;;;1.80;99.90;;;;;;5075184;28;20050;-89
2022/01/29 01:03:46;;;;;;;237.60;124.43;;;1.90;99.90;;;;;;5092524;28;20477;-90
2022/01/29 01:06:11;;;;;;;112.30;58.83;;;1.90;99.90;;;;;;5073403;28;20468;-84
2022/01/29 01:08:38;;;;;;;57.55;31.35;;;2.00;99.90;;;;;;5078649;28;20136;-85
2022/01/29 01:11:04;;;;;;;31.63;17.15;;;2.00;99.90;;;;;;5057267;28;20028;-86
2022/01/29 01:13:33;;;;;;;24.92;12.65;;;2.00;99.90;;;;;;5055874;28;20070;-84
2022/01/29 01:15:59;;;;;;;13.73;8.13;;;2.00;99.90;;;;;;5075462;28;20032;-81
2022/01/29 01:18:25;;;;;;;11.27;6.25;;;2.00;99.90;;;;;;5060022;28;20059;-84
2022/01/29 01:20:51;;;;;;;9.90;5.53;;;2.00;99.90;;;;;;5067458;28;20056;-83
2022/01/29 01:23:17;;;;;;;7.80;4.50;;;2.00;99.90;;;;;;5079701;28;20508;-85
2022/01/29 01:25:44;;;;;;;8.50;4.20;;;2.00;99.90;;;;;;5069791;28;20029;-89
2022/01/29 01:28:10;;;;;;;6.82;3.97;;;2.00;99.90;;;;;;5061602;28;20032;-89
2022/01/29 01:30:36;;;;;;;7.03;3.90;;;2.00;99.90;;;;;;5082326;28;20024;-88
2022/01/29 01:33:03;;;;;;;5.97;3.75;;;2.00;99.90;;;;;;5078810;28;20051;-87
2022/01/29 01:35:35;;;;;;;5.88;3.80;;;2.00;99.90;;;;;;5076734;28;20040;-88
2022/01/29 01:40:45;;;;;;;6.40;3.85;;;2.10;99.90;;;;;;5092781;28;20080;-85
2022/01/29 01:43:10;;;;;;;6.60;3.95;;;2.10;99.90;;;;;;5077706;28;20036;-89
2022/01/29 01:45:36;;;;;;;8.90;4.20;;;2.10;99.90;;;;;;5087717;28;20032;-88
2022/01/29 01:48:05;;;;;;;7.97;4.70;;;2.10;99.90;;;;;;5078818;28;20078;-88
2022/01/29 01:50:31;;;;;;;6.32;4.15;;;2.10;99.90;;;;;;5080591;28;20079;-86
2022/01/29 01:52:58;;;;;;;7.07;4.10;;;2.10;99.90;;;;;;5067814;28;20036;-91
2022/01/29 01:55:24;;;;;;;6.78;4.18;;;2.10;99.90;;;;;;5070416;28;20478;-87
2022/01/29 01:57:50;;;;;;;5.45;3.38;;;2.10;99.90;;;;;;5074909;28;20059;-86
2022/01/29 02:00:16;;;;;;;4.63;3.08;;;2.10;99.90;;;;;;5071649;28;20371;-84
2022/01/29 02:02:42;;;;;;;3.85;2.78;;;2.10;99.90;;;;;;5073772;28;20036;-86
2022/01/29 02:05:09;;;;;;;4.70;2.70;;;2.00;99.90;;;;;;5083805;28;20430;-86
2022/01/29 02:07:35;;;;;;;3.13;2.50;;;2.00;99.90;;;;;;5094443;28;20051;-86
2022/01/29 02:10:01;;;;;;;3.75;2.50;;;2.00;99.90;;;;;;5076195;28;20077;-84
2022/01/29 02:12:30;;;;;;;3.30;2.50;;;2.00;99.90;;;;;;5077623;28;20028;-84
2022/01/29 02:15:01;;;;;;;3.30;2.28;;;2.00;99.90;;;;;;5077083;28;20506;-85
2022/01/29 02:17:27;;;;;;;3.40;2.40;;;2.00;99.90;;;;;;5093977;28;20516;-85
2022/01/29 02:19:52;;;;;;;3.17;2.20;;;2.00;99.90;;;;;;5094473;28;20028;-85
2022/01/29 02:22:18;;;;;;;2.25;2.00;;;2.00;99.90;;;;;;5076420;28;20063;-85
2022/01/29 02:24:44;;;;;;;3.42;2.10;;;2.00;99.90;;;;;;5094648;28;20065;-84
2022/01/29 02:27:09;;;;;;;3.53;2.53;;;2.00;99.90;;;;;;5075610;28;20119;-84
2022/01/29 02:29:35;;;;;;;2.97;2.28;;;2.10;99.90;;;;;;5094225;28;20103;-84
2022/01/29 02:32:01;;;;;;;3.13;2.30;;;2.00;99.90;;;;;;5077219;28;20052;-84
2022/01/29 02:34:30;;;;;;;3.33;2.55;;;2.00;99.90;;;;;;5076494;28;20057;-85
2022/01/29 02:36:56;;;;;;;3.58;2.20;;;2.10;99.90;;;;;;5094067;28;20103;-85
2022/01/29 02:39:22;;;;;;;2.63;2.13;;;2.10;99.90;;;;;;5075496;28;20485;-85
2022/01/29 02:41:48;;;;;;;2.80;2.38;;;2.10;99.90;;;;;;5093526;28;20397;-85
2022/01/29 02:44:20;;;;;;;3.75;2.53;;;2.10;99.90;;;;;;5093808;28;20035;-85
2022/01/29 02:49:16;;;;;;;6.15;3.38;;;2.10;99.90;;;;;;5093685;28;20028;-85
2022/01/29 02:51:50;;;;;;;4.72;3.17;;;2.10;99.90;;;;;;5075585;28;20028;-85
2022/01/29 02:54:16;;;;;;;6.22;4.00;;;2.00;99.90;;;;;;5093651;28;20115;-85
2022/01/29 02:56:42;;;;;;;4.80;3.28;;;2.10;99.90;;;;;;5075193;28;20035;-84
2022/01/29 02:59:08;;;;;;;3.65;2.55;;;2.10;99.90;;;;;;5093024;28;20039;-84
2022/01/29 03:01:34;;;;;;;3.83;2.60;;;2.10;99.90;;;;;;5093457;28;20470;-84
2022/01/29 03:04:00;;;;;;;3.75;2.65;;;2.10;99.90;;;;;;5075161;28;20425;-84
2022/01/29 03:06:25;;;;;;;3.08;2.40;;;2.00;99.90;;;;;;5092256;28;20019;-83
2022/01/29 03:08:52;;;;;;;3.85;2.80;;;2.10;99.90;;;;;;5075006;28;20036;-83
2022/01/29 03:11:19;;;;;;;2.97;2.40;;;2.00;99.90;;;;;;5104629;28;20401;-84
2022/01/29 03:13:49;;;;;;;2.83;2.17;;;2.00;99.90;;;;;;5094749;28;20028;-85
2022/01/29 03:16:17;;;;;;;2.53;2.27;;;2.00;99.90;;;;;;5073600;28;20072;-84
2022/01/29 03:18:42;;;;;;;3.33;2.20;;;2.00;99.90;;;;;;5054850;28;20033;-83
2022/01/29 03:21:08;;;;;;;2.97;1.98;;;2.00;99.90;;;;;;5054204;28;20043;-83
2022/01/29 03:23:34;;;;;;;2.47;2.10;;;2.00;99.90;;;;;;5054626;28;20028;-84
2022/01/29 03:26:00;;;;;;;2.58;1.98;;;2.00;99.90;;;;;;5073085;28;20032;-83
2022/01/29 03:28:29;;;;;;;2.15;1.92;;;1.90;99.90;;;;;;5085565;28;20466;-84
2022/01/29 03:30:55;;;;;;;1.50;1.40;;;1.90;99.90;;;;;;5092946;28;20039;-84
2022/01/29 03:33:21;;;;;;;2.35;1.80;;;1.90;99.90;;;;;;5074837;28;20434;-84
2022/01/29 03:35:47;;;;;;;2.25;1.80;;;1.90;99.90;;;;;;5092295;28;20031;-83
2022/01/29 03:38:13;;;;;;;1.75;1.58;;;1.90;99.90;;;;;;5074266;28;20408;-84
2022/01/29 03:40:40;;;;;;;2.10;1.70;;;1.90;99.90;;;;;;5091737;28;20113;-84
2022/01/29 03:43:10;;;;;;;2.03;1.80;;;1.90;99.90;;;;;;5074289;28;20382;-84
2022/01/29 03:45:35;;;;;;;2.10;1.80;;;1.90;99.90;;;;;;5092532;28;20424;-83
2022/01/29 03:48:02;;;;;;;3.78;2.17;;;1.90;99.90;;;;;;5092292;28;20069;-84
2022/01/29 03:50:28;;;;;;;2.60;1.95;;;1.90;99.90;;;;;;5078630;28;20046;-83
2022/01/29 03:52:54;;;;;;;3.88;2.58;;;2.00;99.90;;;;;;5081476;28;20126;-83
2022/01/29 03:55:21;;;;;;;4.32;2.83;;;1.90;99.90;;;;;;5060897;28;20124;-84
2022/01/29 03:57:46;;;;;;;3.42;2.50;;;1.90;99.90;;;;;;5071952;28;20024;-84
2022/01/29 04:00:13;;;;;;;2.72;2.10;;;1.90;99.90;;;;;;5074338;28;20454;-85
2022/01/29 04:02:38;;;;;;;2.80;2.30;;;1.90;99.90;;;;;;5083011;28;20382;-85
2022/01/29 04:05:05;;;;;;;3.75;2.08;;;1.80;99.90;;;;;;5100128;28;20070;-86
2022/01/29 04:07:31;;;;;;;4.60;2.67;;;1.80;99.90;;;;;;5079333;28;20039;-84
2022/01/29 04:09:58;;;;;;;4.78;3.00;;;1.80;99.90;;;;;;5078630;28;20028;-83
2022/01/29 04:12:26;;;;;;;3.78;2.63;;;1.80;99.90;;;;;;5078731;28;20036;-83
2022/01/29 04:14:54;;;;;;;4.03;2.60;;;1.70;99.90;;;;;;5085070;28;20040;-84
2022/01/29 04:17:19;;;;;;;3.10;2.10;;;1.70;99.90;;;;;;5109819;28;20039;-84
2022/01/29 04:19:45;;;;;;;4.50;2.70;;;1.70;99.90;;;;;;5091530;28;20416;-84
2022/01/29 04:22:11;;;;;;;2.78;2.00;;;1.70;99.90;;;;;;5073602;28;20036;-85
2022/01/29 04:24:38;;;;;;;3.20;2.10;;;1.70;99.90;;;;;;5073305;28;20028;-85
2022/01/29 04:27:13;;;;;;;4.80;2.70;;;1.70;99.90;;;;;;5092019;28;20024;-84
2022/01/29 04:29:51;;;;;;;4.32;2.40;;;1.70;99.90;;;;;;5094097;28;20027;-84
2022/01/29 04:32:21;;;;;;;4.07;2.00;;;1.70;99.90;;;;;;5092501;28;20059;-84
2022/01/29 04:34:46;;;;;;;2.90;2.00;;;1.80;99.90;;;;;;5091631;28;20020;-84
2022/01/29 04:37:12;;;;;;;3.25;2.13;;;1.80;99.90;;;;;;5091875;28;20035;-83
2022/01/29 04:39:38;;;;;;;3.40;1.90;;;1.80;99.90;;;;;;5073329;28;20059;-83
2022/01/29 04:42:04;;;;;;;2.20;1.67;;;1.70;99.90;;;;;;5073979;28;20085;-83
2022/01/29 04:44:30;;;;;;;2.60;2.00;;;1.70;99.90;;;;;;5073619;28;20032;-85
2022/01/29 04:46:55;;;;;;;3.70;2.40;;;1.70;99.90;;;;;;5091777;28;20036;-85
2022/01/29 04:49:21;;;;;;;2.65;1.90;;;1.80;99.90;;;;;;5073156;28;20024;-83
2022/01/29 04:51:47;;;;;;;2.50;1.77;;;1.80;99.90;;;;;;5099573;28;20028;-84
2022/01/29 04:54:12;;;;;;;2.15;1.95;;;1.80;99.90;;;;;;5111542;28;20028;-85
2022/01/29 04:56:38;;;;;;;3.13;1.80;;;1.80;99.90;;;;;;5094390;28;20027;-83
2022/01/29 04:59:04;;;;;;;3.20;1.70;;;1.80;99.90;;;;;;5111833;28;20073;-83
2022/01/29 05:01:29;;;;;;;1.88;1.67;;;1.80;99.90;;;;;;5094383;28;20035;-83
2022/01/29 05:03:55;;;;;;;1.90;1.40;;;1.80;99.90;;;;;;5093662;28;20032;-85
2022/01/29 05:06:20;;;;;;;1.50;1.40;;;1.80;99.90;;;;;;5085593;28;20051;-84
2022/01/29 05:08:46;;;;;;;1.85;1.52;;;1.80;99.90;;;;;;5092440;28;20031;-85
2022/01/29 05:11:15;;;;;;;2.08;1.88;;;1.80;99.90;;;;;;5082935;28;20020;-84
2022/01/29 05:13:41;;;;;;;3.05;1.83;;;1.80;99.90;;;;;;5125654;28;20024;-84
2022/01/29 05:26:53;;;;;;;1.50;1.40;;;1.80;99.90;;;;;;5076722;28;20030;-82
2022/01/29 05:29:19;;;;;;;1.70;1.60;;;1.80;99.90;;;;;;5072857;28;20458;-82
2022/01/29 05:31:45;;;;;;;2.38;1.40;;;1.80;99.90;;;;;;5073231;28;20573;-83
2022/01/29 05:34:11;;;;;;;2.03;1.60;;;1.70;99.90;;;;;;5073720;28;20119;-82
2022/01/29 05:36:37;;;;;;;2.40;1.80;;;1.70;99.90;;;;;;5086073;28;20036;-81
2022/01/29 05:39:04;;;;;;;1.92;1.45;;;1.70;99.90;;;;;;5112467;28;20135;-84
2022/01/29 05:41:30;;;;;;;2.72;1.70;;;1.70;99.90;;;;;;5095253;28;20185;-88
2022/01/29 05:43:56;;;;;;;1.95;1.65;;;1.70;99.90;;;;;;5095287;28;20034;-85
2022/01/29 05:46:22;;;;;;;1.52;1.17;;;1.70;99.90;;;;;;5114474;28;20028;-88
2022/01/29 05:48:48;;;;;;;2.17;1.85;;;1.70;99.90;;;;;;5099573;28;20023;-85
2022/01/29 05:51:14;;;;;;;2.08;1.65;;;1.70;99.90;;;;;;5098076;28;20157;-84
2022/01/29 05:53:39;;;;;;;2.97;2.00;;;1.70;99.90;;;;;;5095297;28;20691;-85
2022/01/29 05:56:05;;;;;;;2.67;2.05;;;1.70;99.90;;;;;;5095149;28;20035;-83
2022/01/29 05:58:31;;;;;;;2.63;1.85;;;1.70;99.90;;;;;;5113109;28;20034;-83
2022/01/29 06:00:57;;;;;;;3.05;2.15;;;1.80;99.90;;;;;;5114036;28;20111;-83
2022/01/29 06:03:23;;;;;;;3.38;2.30;;;1.80;99.90;;;;;;5115581;28;20093;-85
2022/01/29 06:05:49;;;;;;;4.53;2.60;;;1.80;99.90;;;;;;5098527;28;20461;-85
2022/01/29 06:08:14;;;;;;;4.85;3.03;;;1.80;99.90;;;;;;5098443;28;20023;-84
2022/01/29 06:10:41;;;;;;;4.03;2.75;;;1.80;99.90;;;;;;5098951;28;20373;-83
2022/01/29 06:13:12;;;;;;;5.55;3.00;;;1.80;99.90;;;;;;5098810;28;20051;-86
2022/01/29 06:15:42;;;;;;;3.53;2.50;;;1.80;99.90;;;;;;5117591;28;20373;-88
2022/01/29 06:18:14;;;;;;;3.80;2.80;;;1.80;99.90;;;;;;5116975;28;20023;-87
2022/01/29 06:20:41;;;;;;;5.13;2.92;;;1.80;99.90;;;;;;5098283;28;20032;-89
2022/01/29 06:23:07;;;;;;;3.72;2.58;;;1.80;99.90;;;;;;5098127;28;20028;-87
2022/01/29 06:25:33;;;;;;;3.97;2.60;;;1.80;99.90;;;;;;5098878;28;20027;-89
2022/01/29 06:27:58;;;;;;;3.70;2.55;;;1.90;99.90;;;;;;5098642;28;20023;-88
2022/01/29 06:30:24;;;;;;;6.03;3.20;;;1.90;99.90;;;;;;5116533;28;20050;-89
2022/01/29 06:32:50;;;;;;;4.03;2.95;;;1.90;99.90;;;;;;5098141;28;20392;-88
2022/01/29 06:35:17;;;;;;;4.10;2.97;;;2.00;99.90;;;;;;5117065;28;20107;-87
2022/01/29 06:37:43;;;;;;;4.38;2.85;;;2.00;99.90;;;;;;5100205;28;20479;-86
2022/01/29 06:40:09;;;;;;;4.47;2.85;;;2.00;99.90;;;;;;5085974;28;20043;-88
2022/01/29 06:42:35;;;;;;;5.40;3.20;;;2.10;99.90;;;;;;5065954;28;20474;-86
2022/01/29 06:45:01;;;;;;;3.97;2.70;;;2.10;99.90;;;;;;5084504;28;20059;-86
2022/01/29 06:47:27;;;;;;;3.25;2.58;;;2.10;99.90;;;;;;5065447;28;20058;-85
2022/01/29 06:49:53;;;;;;;2.88;2.15;;;2.10;99.90;;;;;;5075958;28;20030;-85
2022/01/29 06:52:18;;;;;;;3.30;2.53;;;2.20;99.90;;;;;;5087185;28;20382;-84
2022/01/29 06:54:44;;;;;;;4.60;2.70;;;2.20;99.90;;;;;;5062054;28;20032;-86
2022/01/29 06:57:11;;;;;;;4.40;2.70;;;2.20;99.90;;;;;;5060013;28;20050;-86
2022/01/29 06:59:37;;;;;;;3.83;2.55;;;2.20;99.90;;;;;;5075270;28;20093;-86
2022/01/29 07:02:03;;;;;;;2.75;2.20;;;2.30;99.90;;;;;;5079428;28;20040;-87
2022/01/29 07:04:29;;;;;;;3.10;2.25;;;2.30;99.90;;;;;;5078573;28;20032;-87
2022/01/29 07:06:54;;;;;;;4.15;2.42;;;2.30;99.90;;;;;;5084957;28;20036;-85
2022/01/29 07:09:20;;;;;;;3.08;2.20;;;2.30;99.90;;;;;;5087119;28;20032;-85
2022/01/29 07:11:53;;;;;;;3.10;2.10;;;2.30;99.90;;;;;;5053742;28;20066;-84
2022/01/29 07:14:19;;;;;;;3.45;2.35;;;2.40;99.90;;;;;;5071187;28;20484;-85
2022/01/29 07:16:45;;;;;;;4.28;2.45;;;2.50;99.90;;;;;;5053540;28;20024;-86
2022/01/29 07:19:11;;;;;;;2.80;2.10;;;2.50;99.90;;;;;;5052781;28;20048;-85
2022/01/29 07:21:37;;;;;;;3.50;2.30;;;2.60;99.90;;;;;;5072770;28;20063;-86
2022/01/29 07:24:04;;;;;;;3.40;2.58;;;2.70;99.90;;;;;;5055171;28;20028;-83
2022/01/29 07:26:30;;;;;;;4.78;2.72;;;2.80;99.90;;;;;;5054682;28;20048;-83
2022/01/29 07:28:56;;;;;;;4.60;2.40;;;2.80;99.90;;;;;;5037867;28;20024;-83
2022/01/29 07:31:22;;;;;;;3.53;2.53;;;2.80;99.90;;;;;;5072060;28;20056;-83
2022/01/29 07:33:48;;;;;;;2.85;2.00;;;2.80;99.90;;;;;;5055187;28;20032;-83
2022/01/29 07:36:14;;;;;;;3.45;2.45;;;2.90;99.90;;;;;;5075880;28;20116;-84
2022/01/29 07:38:39;;;;;;;3.35;2.40;;;2.90;99.90;;;;;;5073412;28;20064;-84
2022/01/29 07:41:06;;;;;;;2.45;2.10;;;2.90;99.90;;;;;;5057530;28;20051;-83
2022/01/29 07:43:35;;;;;;;2.60;2.10;;;2.90;99.90;;;;;;5078517;28;20470;-82
2022/01/29 07:46:01;;;;;;;2.35;1.90;;;2.90;99.90;;;;;;5064931;28;20020;-83
2022/01/29 07:48:34;;;;;;;3.40;2.35;;;3.00;99.90;;;;;;5056309;28;20031;-85
2022/01/29 07:51:00;;;;;;;2.30;1.90;;;3.00;99.90;;;;;;5056916;28;20056;-84
2022/01/29 07:53:26;;;;;;;3.00;2.17;;;3.10;99.90;;;;;;5056476;28;20075;-83
2022/01/29 07:55:51;;;;;;;3.28;2.17;;;3.10;99.90;;;;;;5056863;28;20024;-83
2022/01/29 07:58:17;;;;;;;3.13;2.13;;;3.20;99.90;;;;;;5074718;28;20064;-83
2022/01/29 08:00:46;;;;;;;2.65;1.90;;;3.30;99.90;;;;;;5075131;28;20047;-82
2022/01/29 08:03:13;;;;;;;1.98;1.67;;;3.40;99.90;;;;;;5058287;28;20118;-82
2022/01/29 08:05:42;;;;;;;2.38;1.58;;;3.40;99.90;;;;;;5076026;28;20032;-84
2022/01/29 08:08:10;;;;;;;3.15;2.00;;;3.50;99.90;;;;;;5056347;28;20020;-84
2022/01/29 08:10:36;;;;;;;2.45;1.85;;;3.60;99.90;;;;;;5055688;28;20158;-82
2022/01/29 08:13:01;;;;;;;2.13;1.80;;;3.60;99.90;;;;;;5055972;28;20495;-82
2022/01/29 08:15:27;;;;;;;2.60;1.90;;;3.60;99.90;;;;;;5074309;28;20100;-84
2022/01/29 08:17:53;;;;;;;2.33;1.80;;;3.60;99.90;;;;;;5074076;28;20025;-83
2022/01/29 08:20:19;;;;;;;2.00;1.80;;;3.60;99.90;;;;;;5075865;28;20085;-83
2022/01/29 08:22:46;;;;;;;2.08;1.85;;;3.60;99.90;;;;;;5076043;28;20028;-83
2022/01/29 08:25:12;;;;;;;2.42;1.75;;;3.60;99.90;;;;;;5093592;28;20139;-82
2022/01/29 08:27:37;;;;;;;3.03;2.10;;;3.60;99.90;;;;;;5075832;28;20030;-82
2022/01/29 08:30:04;;;;;;;3.42;2.20;;;3.50;99.90;;;;;;5075730;28;20059;-84
2022/01/29 08:32:30;;;;;;;2.88;2.20;;;3.50;99.90;;;;;;5075526;28;20051;-83
2022/01/29 08:34:55;;;;;;;3.97;2.28;;;3.40;99.90;;;;;;5075675;28;20028;-83
2022/01/29 08:37:21;;;;;;;3.83;2.38;;;3.40;99.90;;;;;;5093931;28;20072;-84
2022/01/29 08:39:50;;;;;;;4.20;2.60;;;3.30;99.90;;;;;;5076066;28;20028;-83
2022/01/29 08:42:16;;;;;;;3.97;2.85;;;3.30;99.90;;;;;;5080408;28;20032;-84
2022/01/29 08:44:42;;;;;;;4.85;3.22;;;3.30;99.90;;;;;;5090119;28;20032;-83
2022/01/29 08:47:08;;;;;;;5.13;3.63;;;3.30;99.90;;;;;;5073783;28;20032;-83
2022/01/29 08:49:34;;;;;;;5.82;3.50;;;3.30;99.90;;;;;;5079213;28;20604;-83
2022/01/29 08:52:00;;;;;;;5.40;3.30;;;3.30;99.90;;;;;;5075838;28;20389;-81
2022/01/29 08:54:25;;;;;;;5.10;3.67;;;3.30;99.90;;;;;;5075584;28;20118;-82
2022/01/29 08:56:51;;;;;;;5.75;3.38;;;3.30;99.90;;;;;;5075491;28;20465;-83
2022/01/29 08:59:17;;;;;;;5.75;3.60;;;3.30;99.90;;;;;;5075955;28;20024;-92
2022/01/29 09:01:42;;;;;;;5.97;3.50;;;3.30;99.90;;;;;;5075419;28;20028;-82
2022/01/29 09:04:08;;;;;;;111.70;57.08;;;3.40;99.90;;;;;;5093896;28;20039;-82
2022/01/29 09:06:34;;;;;;;48.30;26.15;;;3.40;99.90;;;;;;5075537;28;20047;-82
2022/01/29 09:09:00;;;;;;;26.20;15.02;;;3.40;99.90;;;;;;5075367;28;20055;-82
2022/01/29 09:11:26;;;;;;;18.88;10.43;;;3.50;99.90;;;;;;5075552;28;20502;-83
2022/01/29 09:14:00;;;;;;;11.55;6.15;;;3.50;99.90;;;;;;5075381;28;20038;-82
2022/01/29 09:16:28;;;;;;;8.38;4.97;;;3.50;99.50;;;;;;5093851;28;20416;-83
2022/01/29 09:18:54;;;;;;;6.38;4.13;;;3.50;99.90;;;;;;5075656;28;20024;-82
2022/01/29 09:21:20;;;;;;;7.22;3.70;;;3.50;99.90;;;;;;5071610;28;20482;-82
2022/01/29 09:23:46;;;;;;;4.22;3.13;;;3.50;99.90;;;;;;5074179;28;20512;-84
2022/01/29 09:26:12;;;;;;;4.78;2.95;;;3.50;99.90;;;;;;5072859;28;20028;-82
2022/01/29 09:28:40;;;;;;;4.13;2.67;;;3.50;99.70;;;;;;5075277;28;20428;-82
2022/01/29 09:31:06;;;;;;;4.03;2.70;;;3.50;99.80;;;;;;5093438;28;20369;-83
2022/01/29 09:33:31;;;;;;;3.13;2.30;;;3.50;98.70;;;;;;5093436;28;20027;-82
2022/01/29 09:35:57;;;;;;;3.65;2.70;;;3.40;97.80;;;;;;5075474;28;20024;-82
2022/01/29 09:38:22;;;;;;;4.15;2.88;;;3.40;97.70;;;;;;5074565;28;20051;-82
2022/01/29 09:40:49;;;;;;;2.83;2.22;;;3.30;96.40;;;;;;5078220;28;20406;-83
2022/01/29 09:43:15;;;;;;;3.40;2.40;;;3.30;97.40;;;;;;5087333;28;20031;-82
2022/01/29 09:45:43;;;;;;;4.18;2.60;;;3.30;97.30;;;;;;5088099;28;20469;-88
2022/01/29 09:48:09;;;;;;;3.30;2.40;;;3.20;97.30;;;;;;5091972;28;20024;-82
2022/01/29 09:50:39;;;;;;;4.47;2.50;;;3.20;96.90;;;;;;5087420;28;20034;-88
2022/01/29 09:53:06;;;;;;;3.35;2.40;;;3.30;95.90;;;;;;5085044;28;20019;-88
2022/01/29 09:55:32;;;;;;;3.25;2.22;;;3.30;96.40;;;;;;5067657;28;20035;-86
2022/01/29 09:57:58;;;;;;;4.00;2.70;;;3.20;96.30;;;;;;5067768;28;20499;-91
2022/01/29 10:00:25;;;;;;;4.50;2.20;;;3.20;95.70;;;;;;5071664;28;20043;-88
2022/01/29 10:03:09;;;;;;;3.45;2.45;;;3.20;95.50;;;;;;5092881;28;20059;-86
2022/01/29 10:05:36;;;;;;;3.63;2.55;;;3.20;94.90;;;;;;5084687;28;20032;-87
2022/01/29 10:08:02;;;;;;;3.40;2.17;;;3.10;94.90;;;;;;5078236;28;20028;-86
2022/01/29 10:10:41;;;;;;;2.85;2.22;;;3.10;95.60;;;;;;5096635;28;20036;-88
2022/01/29 10:13:26;;;;;;;2.85;2.08;;;3.10;94.90;;;;;;5091574;28;20032;-87
2022/01/29 10:16:10;;;;;;;4.35;2.42;;;3.10;94.70;;;;;;5078878;28;20096;-85
2022/01/29 10:18:37;;;;;;;2.97;2.20;;;3.00;95.60;;;;;;5078885;28;20055;-89
2022/01/29 10:21:23;;;;;;;3.35;2.33;;;3.00;95.80;;;;;;5078055;28;20059;-87
2022/01/29 10:24:00;;;;;;;3.65;2.13;;;3.00;95.40;;;;;;5077659;28;20046;-87
2022/01/29 10:26:29;;;;;;;3.38;2.35;;;2.90;96.50;;;;;;5095237;28;20060;-87
2022/01/29 10:28:56;;;;;;;5.82;2.45;;;2.90;96.60;;;;;;5076388;28;20031;-89
2022/01/29 10:31:22;;;;;;;4.07;2.40;;;2.80;96.60;;;;;;5076178;28;20052;-89
2022/01/29 10:33:47;;;;;;;2.75;2.10;;;2.80;96.80;;;;;;5094420;28;20102;-88
2022/01/29 10:36:19;;;;;;;3.22;2.30;;;2.80;97.10;;;;;;5061416;28;20382;-89
2022/01/29 10:38:57;;;;;;;3.75;2.47;;;2.90;97.20;;;;;;5074360;28;20021;-88
2022/01/29 10:41:26;;;;;;;4.25;2.70;;;2.90;96.90;;;;;;5091376;28;20052;-91
2022/01/29 10:43:55;;;;;;;87.28;44.35;;;2.90;96.70;;;;;;5100471;28;20070;-85
2022/01/29 10:46:31;;;;;;;51.15;25.10;;;2.90;95.90;;;;;;5091107;28;20020;-89
2022/01/29 10:48:59;;;;;;;23.60;12.68;;;2.90;96.60;;;;;;5079544;28;20016;-86
2022/01/29 10:51:26;;;;;;;12.98;7.32;;;2.90;97.00;;;;;;5058748;28;20028;-88
2022/01/29 10:53:53;;;;;;;9.35;4.95;;;2.80;97.10;;;;;;5090052;28;20029;-86
2022/01/29 10:56:22;;;;;;;6.47;3.97;;;2.80;97.00;;;;;;5057739;28;20421;-85
2022/01/29 10:58:50;;;;;;;6.78;3.30;;;2.80;97.40;;;;;;5055853;28;20386;-87
2022/01/29 11:01:18;;;;;;;4.70;2.90;;;2.80;97.30;;;;;;5053907;28;20067;-85
2022/01/29 11:03:44;;;;;;;4.18;2.42;;;2.80;97.00;;;;;;5054422;28;20052;-88
2022/01/29 11:06:20;;;;;;;4.18;2.80;;;2.80;96.60;;;;;;5053193;28;20470;-87
2022/01/29 11:08:49;;;;;;;4.25;2.55;;;2.70;96.50;;;;;;5051456;28;20148;-85
2022/01/29 11:11:16;;;;;;;3.65;2.50;;;2.70;96.50;;;;;;5052773;28;20036;-88
2022/01/29 11:13:46;;;;;;;2.85;2.28;;;2.70;95.90;;;;;;5055233;28;20028;-88
2022/01/29 11:16:12;;;;;;;2.92;2.25;;;2.80;95.80;;;;;;5055487;28;20382;-87
2022/01/29 11:18:38;;;;;;;4.93;2.75;;;2.80;96.00;;;;;;5055083;28;20044;-87
2022/01/29 11:21:04;;;;;;;3.88;2.30;;;2.70;95.30;;;;;;5054099;28;20029;-90
2022/01/29 11:23:31;;;;;;;2.60;2.00;;;2.70;95.50;;;;;;5072875;28;20035;-89
2022/01/29 11:26:00;;;;;;;4.00;2.45;;;2.70;95.60;;;;;;5054728;28;20107;-88
2022/01/29 11:28:28;;;;;;;4.18;2.35;;;2.70;95.40;;;;;;5077024;28;20028;-89
2022/01/29 11:31:14;;;;;;;4.50;2.33;;;2.70;95.40;;;;;;5075818;28;20029;-87
2022/01/29 11:33:58;;;;;;;5.57;2.63;;;2.70;94.00;;;;;;5073736;28;20060;-88
2022/01/29 11:36:49;;;;;;;4.45;2.67;;;2.70;93.60;;;;;;5056340;28;20029;-88
2022/01/29 11:39:29;;;;;;;3.80;2.58;;;2.60;93.40;;;;;;5056851;28;20119;-88
2022/01/29 11:42:13;;;;;;;4.25;2.63;;;2.50;94.00;;;;;;5067354;28;20036;-88
2022/01/29 11:44:44;;;;;;;3.70;2.65;;;2.50;94.30;;;;;;5065052;28;20021;-88
2022/01/29 11:47:25;;;;;;;3.35;2.40;;;2.50;94.10;;;;;;5074190;28;20029;-86
2022/01/29 11:49:53;;;;;;;2.75;2.22;;;2.50;94.20;;;;;;5055633;28;20119;-87
2022/01/29 11:52:24;;;;;;;4.10;2.40;;;2.50;94.60;;;;;;5072762;28;20025;-86
2022/01/29 11:55:09;;;;;;;;;;;2.50;94.40;;;;;;5054863;28;20137;-89
2022/01/29 11:57:34;;;;;;;3.60;2.30;;;2.50;93.10;;;;;;5055040;28;20027;-87
2022/01/29 12:00:35;;;;;;;4.63;2.50;;;2.40;94.10;;;;;;5054479;28;20131;-89
2022/01/29 12:03:01;;;;;;;2.83;2.17;;;2.40;93.20;;;;;;5054527;28;20064;-87
2022/01/29 12:05:31;;;;;;;2.97;2.10;;;2.40;94.30;;;;;;5054730;28;20071;-87
2022/01/29 12:08:17;;;;;;;3.30;2.08;;;2.40;93.80;;;;;;5056003;28;20074;-87
2022/01/29 12:10:53;;;;;;;3.33;2.22;;;2.40;93.80;;;;;;5056440;28;20036;-85
2022/01/29 12:13:19;;;;;;;3.60;2.15;;;2.40;94.30;;;;;;5073721;28;20458;-87
2022/01/29 12:15:45;;;;;;;3.00;2.20;;;2.40;93.90;;;;;;5055127;28;20020;-86
2022/01/29 12:18:32;;;;;;;3.58;2.40;;;2.40;94.00;;;;;;5054944;28;20177;-88
2022/01/29 12:20:59;;;;;;;4.28;2.55;;;2.40;91.90;;;;;;5053733;28;20024;-84
2022/01/29 12:23:28;;;;;;;3.70;2.30;;;2.40;93.80;;;;;;5054064;28;20028;-87
2022/01/29 12:25:56;;;;;;;3.45;2.00;;;2.30;93.90;;;;;;5055528;28;20056;-88
2022/01/29 12:28:22;;;;;;;4.38;2.17;;;2.30;94.10;;;;;;5055207;28;20443;-87
2022/01/29 12:30:48;;;;;;;3.90;2.33;;;2.30;94.20;;;;;;5053806;28;20119;-87
2022/01/29 12:33:19;;;;;;;3.47;2.20;;;2.30;94.10;;;;;;5053522;28;20052;-88
2022/01/29 12:35:51;;;;;;;3.33;2.17;;;2.30;94.10;;;;;;5050914;28;20025;-86
2022/01/29 12:38:30;;;;;;;3.65;2.47;;;2.30;94.00;;;;;;5053887;28;20487;-85
2022/01/29 12:41:03;;;;;;;3.60;2.17;;;2.30;94.00;;;;;;5051978;28;20036;-87
2022/01/29 12:44:08;;;;;;;3.47;2.30;;;2.30;94.00;;;;;;5051532;28;20593;-86
2022/01/29 12:46:28;;;;;;;4.68;2.55;;;2.30;94.40;;;;;;5049148;28;20047;-85
2022/01/29 12:49:06;;;;;;;4.30;2.70;;;2.20;94.00;;;;;;5050897;28;20467;-86
2022/01/29 12:51:32;;;;;;;3.45;2.17;;;2.20;93.80;;;;;;5050248;28;20103;-86
2022/01/29 12:54:00;;;;;;;3.75;2.60;;;2.20;94.10;;;;;;5050207;28;20036;-88
2022/01/29 12:56:31;;;;;;;2.78;2.00;;;2.20;94.00;;;;;;5050876;28;20025;-86
2022/01/29 12:58:56;;;;;;;;;;;2.20;94.00;;;;;;5050204;28;20454;-87
2022/01/29 13:01:24;;;;;;;3.63;2.20;;;2.10;93.40;;;;;;5049941;28;20004;-86
2022/01/29 13:03:50;;;;;;;3.33;2.20;;;2.10;94.50;;;;;;5050091;28;20029;-84
2022/01/29 13:06:20;;;;;;;2.72;2.00;;;2.10;94.40;;;;;;5049632;28;20025;-85
2022/01/29 13:08:45;;;;;;;3.55;2.38;;;2.10;94.40;;;;;;5049788;28;20087;-85
2022/01/29 13:11:25;;;;;;;3.15;2.40;;;2.10;94.60;;;;;;5049961;28;20470;-86
2022/01/29 13:13:51;;;;;;;3.65;2.60;;;2.10;94.30;;;;;;5055501;28;20029;-86